Time;durP1;ratioP1;P1;durP2;ratioP2;P2;SDS_P1;SDS_P2;PMS_P1;PMS_P2;Temp;Humidity;BMP_temperature;BMP_pressure;BME280_temperature;BME280_humidity;BME280_pressure;Samples;Min_cycle;Max_cycle;Signal;HPM_P1;HPM_P2
2022/05/17 00:00:38;;;;;;;7.90;3.58;;;;;;;17.71;78.96;100395.28;5590898;31;33929;-67
2022/05/17 00:03:40;;;;;;;9.13;3.55;;;;;;;17.61;79.98;100396.78;5589925;31;33273;-67
2022/05/17 00:06:43;;;;;;;5.72;3.65;;;;;;;17.57;79.96;100398.22;5590905;31;34026;-67
2022/05/17 00:09:46;;;;;;;6.03;3.40;;;;;;;17.52;80.59;100398.84;5590362;31;34184;-67
2022/05/17 00:12:50;;;;;;;11.25;3.20;;;;;;;17.57;80.06;100385.59;5590873;31;34112;-67
2022/05/17 00:15:54;;;;;;;7.12;3.60;;;;;;;17.42;80.34;100381.56;5590770;31;34608;-67
2022/05/17 00:18:57;;;;;;;5.45;3.30;;;;;;;17.35;80.55;100373.53;5590889;31;34146;-67
2022/05/17 00:22:00;;;;;;;5.03;3.22;;;;;;;17.37;81.18;100383.00;5590860;31;34469;-67
2022/05/17 00:25:04;;;;;;;5.87;3.60;;;;;;;17.28;81.58;100372.75;5590682;31;35299;-67
2022/05/17 00:28:07;;;;;;;7.78;3.78;;;;;;;17.17;82.14;100360.81;5590918;31;33964;-67
2022/05/17 00:31:10;;;;;;;8.07;4.12;;;;;;;17.07;82.48;100365.78;5590019;31;34110;-67
2022/05/17 00:34:13;;;;;;;5.25;3.53;;;;;;;17.01;82.87;100355.87;5590639;31;34684;-67
2022/05/17 00:37:16;;;;;;;7.20;4.15;;;;;;;16.99;82.68;100360.66;5590582;31;34753;-67
2022/05/17 00:40:20;;;;;;;6.22;3.58;;;;;;;16.97;82.79;100357.34;5590836;31;34891;-67
2022/05/17 00:47:05;;;;;;;7.22;3.35;;;;;;;16.99;82.90;100363.34;5590530;31;34563;-67
2022/05/17 00:50:34;;;;;;;9.75;3.55;;;;;;;17.04;82.71;100351.97;5589831;31;34622;-67
2022/05/17 00:53:37;;;;;;;8.10;3.75;;;;;;;17.10;82.20;100354.63;5583869;31;34040;-67
2022/05/17 00:56:54;;;;;;;7.97;3.95;;;;;;;17.23;80.02;100357.25;5589777;31;34391;-67
2022/05/17 01:00:01;;;;;;;7.32;3.83;;;;;;;17.73;77.12;100347.59;5589642;31;34142;-67
2022/05/17 01:03:08;;;;;;;7.68;3.97;;;;;;;17.63;76.26;100346.41;5590796;31;33956;-67
2022/05/17 01:06:12;;;;;;;7.28;4.60;;;;;;;17.55;77.05;100343.94;5589683;31;33598;-67
2022/05/17 01:09:14;;;;;;;8.45;4.37;;;;;;;17.62;76.79;100339.41;5589094;31;34531;-67
2022/05/17 01:12:17;;;;;;;5.70;3.97;;;;;;;17.68;76.71;100335.84;5590284;31;34123;-67
2022/05/17 01:15:20;;;;;;;7.50;3.78;;;;;;;17.76;76.09;100332.94;5589621;31;32776;-67
2022/05/17 01:18:24;;;;;;;4.82;3.83;;;;;;;17.67;77.18;100348.44;5590313;31;34623;-67
2022/05/17 01:21:27;;;;;;;6.05;3.97;;;;;;;17.71;77.91;100344.31;5590151;31;33894;-68
2022/05/17 01:24:30;;;;;;;9.10;4.12;;;;;;;17.74;77.74;100341.19;5590190;31;34597;-67
2022/05/17 01:27:45;;;;;;;6.25;3.67;;;;;;;17.95;77.04;100345.41;5589480;31;32508;-66
2022/05/17 01:30:49;;;;;;;9.90;4.12;;;;;;;17.80;77.90;100339.50;5590366;31;33964;-67
2022/05/17 01:33:51;;;;;;;6.47;4.35;;;;;;;17.78;78.56;100345.06;5589604;31;32655;-67
2022/05/17 01:36:54;;;;;;;6.80;4.00;;;;;;;17.60;79.27;100338.78;5590191;31;35292;-67
2022/05/17 01:39:57;;;;;;;5.70;4.18;;;;;;;17.82;78.89;100342.78;5590069;31;34650;-67
2022/05/17 01:43:00;;;;;;;4.93;3.65;;;;;;;17.71;79.60;100335.44;5589279;31;33628;-67
2022/05/17 01:46:07;;;;;;;7.65;3.85;;;;;;;17.57;80.72;100336.50;5589927;31;34617;-67
2022/05/17 01:49:10;;;;;;;8.02;4.07;;;;;;;17.53;80.90;100337.94;5590020;31;34710;-67
2022/05/17 01:52:13;;;;;;;6.30;3.65;;;;;;;17.63;80.85;100341.03;5576078;31;33958;-67
2022/05/17 01:55:16;;;;;;;8.05;4.20;;;;;;;17.66;80.83;100348.66;5590029;31;34322;-67
2022/05/17 01:58:19;;;;;;;8.15;4.05;;;;;;;17.51;81.75;100334.69;5590331;31;34018;-67
2022/05/17 02:01:22;;;;;;;6.32;3.90;;;;;;;17.53;82.14;100329.91;5589950;31;33877;-67
2022/05/17 02:04:25;;;;;;;10.93;3.92;;;;;;;17.57;82.13;100340.00;5589146;31;32649;-68
2022/05/17 02:07:28;;;;;;;7.05;3.75;;;;;;;17.53;82.23;100336.09;5589949;31;34329;-67
2022/05/17 02:10:31;;;;;;;6.12;3.92;;;;;;;17.55;82.86;100344.75;5589900;31;34678;-67
2022/05/17 02:13:34;;;;;;;6.82;3.62;;;;;;;17.49;82.68;100323.31;5589868;31;34272;-67
2022/05/17 02:16:38;;;;;;;8.20;3.90;;;;;;;17.61;82.10;100332.37;5589068;31;34473;-67
2022/05/17 02:19:41;;;;;;;4.82;3.20;;;;;;;17.58;82.08;100335.44;5588689;31;35263;-67
2022/05/17 02:22:44;;;;;;;5.72;3.58;;;;;;;17.51;81.47;100326.62;5589821;31;33908;-68
2022/05/17 02:25:47;;;;;;;6.18;3.33;;;;;;;17.53;81.00;100328.03;5589755;31;34048;-67
2022/05/17 02:28:49;;;;;;;6.43;3.92;;;;;;;17.53;80.88;100324.53;5589519;31;35233;-67
2022/05/17 02:31:52;;;;;;;6.90;3.80;;;;;;;17.64;80.91;100332.78;5588901;31;32785;-67
2022/05/17 02:34:55;;;;;;;6.35;3.40;;;;;;;17.76;79.70;100335.63;5589951;31;34107;-68
2022/05/17 02:37:58;;;;;;;7.85;3.55;;;;;;;17.66;79.42;100327.19;5589669;31;33992;-68
2022/05/17 02:41:00;;;;;;;6.43;3.20;;;;;;;17.60;79.87;100315.47;5588913;31;32433;-67
2022/05/17 02:44:03;;;;;;;6.28;3.53;;;;;;;17.63;80.24;100317.72;5589416;31;34153;-67
2022/05/17 02:47:06;;;;;;;6.32;3.30;;;;;;;17.63;80.18;100331.13;5589536;31;33999;-68
2022/05/17 02:50:10;;;;;;;4.82;3.17;;;;;;;17.65;80.27;100325.56;5588880;31;33436;-67
2022/05/17 02:53:13;;;;;;;6.00;3.58;;;;;;;17.84;79.66;100326.47;5589448;31;34441;-67
2022/05/17 02:56:16;;;;;;;12.15;3.78;;;;;;;17.76;81.16;100331.06;5589720;31;33971;-66
2022/05/17 02:59:20;;;;;;;4.62;3.42;;;;;;;17.80;80.29;100328.78;5589782;31;34667;-67
2022/05/17 03:02:22;;;;;;;6.70;3.70;;;;;;;17.79;80.96;100330.62;5589464;31;33890;-67
2022/05/17 03:05:26;;;;;;;12.52;4.10;;;;;;;17.81;81.40;100333.91;5589241;31;34614;-67
2022/05/17 03:08:29;;;;;;;5.82;4.03;;;;;;;17.59;82.20;100329.09;5575273;31;32735;-66
2022/05/17 03:11:31;;;;;;;5.55;3.20;;;;;;;17.63;82.04;100335.66;5588720;31;33334;-66
2022/05/17 03:14:34;;;;;;;7.90;3.78;;;;;;;17.74;81.70;100333.13;5588465;31;33594;-67
2022/05/17 03:17:36;;;;;;;9.82;4.10;;;;;;;17.72;82.00;100337.88;5588290;31;33236;-66
2022/05/17 03:20:39;;;;;;;7.95;3.62;;;;;;;17.59;83.34;100346.00;5588440;31;32337;-66
2022/05/17 03:23:42;;;;;;;5.40;3.72;;;;;;;17.61;83.33;100338.59;5589005;31;33984;-66
2022/05/17 03:26:45;;;;;;;7.07;4.10;;;;;;;17.55;83.66;100341.25;5588139;31;33132;-67
2022/05/17 03:29:47;;;;;;;5.30;3.47;;;;;;;17.29;83.14;100334.12;5587807;31;32427;-67
2022/05/17 03:32:51;;;;;;;5.62;3.92;;;;;;;17.23;83.01;100338.50;5587756;31;34212;-66
2022/05/17 03:35:58;;;;;;;12.23;4.30;;;;;;;17.29;81.95;100339.50;5588503;31;34491;-66
2022/05/17 03:39:01;;;;;;;6.20;3.35;;;;;;;17.41;79.45;100337.00;5588909;31;34586;-66
2022/05/17 03:42:04;;;;;;;7.10;3.42;;;;;;;17.58;78.40;100338.13;5588252;31;34646;-66
2022/05/17 03:45:08;;;;;;;4.43;3.15;;;;;;;17.74;77.04;100348.41;5588299;31;34079;-66
2022/05/17 03:48:11;;;;;;;4.82;3.08;;;;;;;17.85;75.74;100339.69;5588486;31;34628;-66
2022/05/17 03:51:16;;;;;;;8.98;3.17;;;;;;;18.00;74.68;100342.88;5588471;31;34676;-66
2022/05/17 03:54:21;;;;;;;6.43;3.28;;;;;;;18.21;72.44;100349.75;5588736;31;33984;-67
2022/05/17 03:57:27;;;;;;;5.18;3.08;;;;;;;18.31;72.09;100350.06;5588387;31;34124;-66
2022/05/17 04:00:30;;;;;;;5.28;3.20;;;;;;;18.36;71.16;100350.25;5587619;31;34661;-67
2022/05/17 04:03:33;;;;;;;4.60;3.22;;;;;;;18.46;70.96;100344.38;5588322;31;34011;-66
2022/05/17 04:06:36;;;;;;;7.68;3.03;;;;;;;18.54;70.48;100353.00;5588345;31;34335;-67
2022/05/17 04:09:39;;;;;;;6.57;3.20;;;;;;;18.56;70.63;100348.25;5587418;31;33899;-67
2022/05/17 04:12:42;;;;;;;9.52;3.42;;;;;;;18.59;70.71;100344.28;5588170;31;33901;-67
2022/05/17 04:15:45;;;;;;;7.07;3.33;;;;;;;18.65;70.39;100351.47;5587254;31;34987;-67
2022/05/17 04:18:48;;;;;;;7.45;3.28;;;;;;;18.78;69.86;100346.00;5587501;31;33331;-66
2022/05/17 04:21:51;;;;;;;6.82;3.05;;;;;;;18.85;69.45;100353.97;5587959;31;33991;-67
2022/05/17 04:24:55;;;;;;;7.45;4.03;;;;;;;18.88;68.74;100350.84;5587639;31;34068;-66
2022/05/17 04:27:58;;;;;;;10.48;3.80;;;;;;;18.79;69.36;100352.97;5587767;31;33896;-67
2022/05/17 04:31:01;;;;;;;7.15;3.05;;;;;;;18.81;68.74;100347.41;5587688;31;34258;-67
2022/05/17 04:34:04;;;;;;;7.00;3.20;;;;;;;18.82;68.98;100349.06;5574021;31;33084;-68
2022/05/17 04:37:07;;;;;;;4.95;3.05;;;;;;;18.85;69.22;100345.91;5587683;31;34025;-66
2022/05/17 04:40:13;;;;;;;7.25;3.20;;;;;;;19.08;69.34;100354.12;5587567;31;33967;-67
2022/05/17 04:43:16;;;;;;;5.28;3.15;;;;;;;18.91;69.97;100356.59;5587778;31;32427;-68
2022/05/17 04:46:19;;;;;;;5.57;3.15;;;;;;;18.76;70.45;100345.37;5589590;31;32685;-67
2022/05/17 04:49:24;;;;;;;7.35;3.12;;;;;;;18.73;70.74;100353.91;5589611;31;32744;-67
2022/05/17 04:52:26;;;;;;;8.32;3.10;;;;;;;18.77;70.54;100356.97;5589826;31;32396;-67
2022/05/17 04:55:29;;;;;;;5.90;3.17;;;;;;;18.85;70.48;100357.47;5590593;31;34036;-67
2022/05/17 04:58:34;;;;;;;9.15;3.40;;;;;;;18.80;70.29;100351.94;5590468;31;34033;-67
2022/05/17 05:01:38;;;;;;;5.30;3.03;;;;;;;18.99;70.03;100355.47;5590146;31;34239;-67
2022/05/17 05:04:41;;;;;;;5.62;3.28;;;;;;;19.14;70.21;100366.69;5590284;31;34593;-67
2022/05/17 05:07:45;;;;;;;6.15;3.15;;;;;;;19.21;69.49;100355.87;5589541;31;32927;-67
2022/05/17 05:10:48;;;;;;;10.20;3.90;;;;;;;19.04;70.28;100348.38;5576669;31;33274;-67
2022/05/17 05:13:51;;;;;;;6.60;3.65;;;;;;;19.02;70.22;100347.81;5589490;31;35291;-67
2022/05/17 05:16:53;;;;;;;8.20;3.25;;;;;;;19.12;70.07;100344.59;5589438;31;32551;-67
2022/05/17 05:19:56;;;;;;;5.90;3.45;;;;;;;19.16;69.34;100350.34;5590165;31;35211;-66
2022/05/17 05:22:59;;;;;;;5.80;3.42;;;;;;;19.07;70.01;100336.38;5588557;31;32575;-67
2022/05/17 05:26:02;;;;;;;5.55;3.22;;;;;;;18.96;70.61;100345.19;5588614;31;32742;-67
2022/05/17 05:29:07;;;;;;;11.75;3.45;;;;;;;19.14;70.00;100355.94;5589590;31;33869;-67
2022/05/17 05:32:09;;;;;;;8.57;3.45;;;;;;;19.38;69.59;100364.97;5588699;31;33020;-67
2022/05/17 05:35:17;;;;;;;8.88;3.40;;;;;;;19.62;68.52;100368.63;5588634;31;32480;-67
2022/05/17 05:38:21;;;;;;;9.65;4.10;;;;;;;19.63;68.19;100360.34;5588682;31;34016;-66
2022/05/17 05:41:29;;;;;;;9.88;3.20;;;;;;;19.20;68.83;100363.13;5589382;31;34007;-66
2022/05/17 05:44:34;;;;;;;6.75;3.87;;;;;;;19.22;69.31;100363.69;5589281;31;33850;-67
2022/05/17 05:47:40;;;;;;;8.05;4.30;;;;;;;19.10;70.00;100371.69;5588310;31;32893;-67
2022/05/17 05:50:43;;;;;;;11.65;4.37;;;;;;;19.12;69.97;100376.03;5588576;31;33101;-66
2022/05/17 05:53:46;;;;;;;13.02;3.83;;;;;;;19.20;69.11;100368.50;5588996;31;34675;-67
2022/05/17 05:56:48;;;;;;;7.20;3.83;;;;;;;19.35;68.78;100365.44;5589361;31;35437;-67
2022/05/17 05:59:51;;;;;;;7.07;4.32;;;;;;;19.57;67.60;100369.31;5575357;31;32620;-66
2022/05/17 06:02:55;;;;;;;7.15;4.43;;;;;;;19.38;68.56;100367.66;5589430;31;34090;-66
2022/05/17 06:05:57;;;;;;;11.75;4.28;;;;;;;19.44;68.39;100361.41;5588727;31;32415;-67
2022/05/17 06:09:00;;;;;;;7.35;4.32;;;;;;;19.45;69.04;100357.69;5588727;31;33272;-67
2022/05/17 06:12:04;;;;;;;9.10;4.60;;;;;;;19.36;69.10;100353.62;5589106;31;34186;-67
2022/05/17 06:15:07;;;;;;;7.65;4.22;;;;;;;19.61;68.38;100357.03;5588377;31;33909;-67
2022/05/17 06:18:11;;;;;;;8.77;4.55;;;;;;;19.76;67.78;100353.94;5589046;31;34152;-66
2022/05/17 06:21:13;;;;;;;7.05;4.40;;;;;;;19.63;68.43;100357.62;5588978;31;34773;-67
2022/05/17 06:24:17;;;;;;;7.45;4.50;;;;;;;19.60;68.67;100371.56;5588620;31;34049;-67
2022/05/17 06:27:19;;;;;;;7.72;4.80;;;;;;;19.66;68.25;100367.94;5587982;31;33311;-66
2022/05/17 06:30:22;;;;;;;7.25;4.05;;;;;;;19.90;68.08;100369.69;5588927;31;34552;-67
2022/05/17 06:33:26;;;;;;;8.85;4.93;;;;;;;20.52;65.93;100374.78;5588295;31;33384;-67
2022/05/17 06:36:29;;;;;;;9.68;4.70;;;;;;;20.62;65.47;100378.53;5588939;31;34619;-67
2022/05/17 06:39:52;;;;;;;9.75;4.70;;;;;;;20.85;64.96;100382.31;5588519;31;32669;-67
2022/05/17 06:42:54;;;;;;;7.57;4.50;;;;;;;21.32;62.92;100375.00;5588621;31;33898;-66
2022/05/17 06:45:57;;;;;;;8.30;4.35;;;;;;;21.13;63.46;100377.88;5588273;31;33259;-66
2022/05/17 06:49:00;;;;;;;13.68;4.80;;;;;;;21.73;61.29;100382.06;5589393;31;34918;-66
2022/05/17 06:52:03;;;;;;;6.80;4.45;;;;;;;21.71;62.02;100381.47;5589112;31;34304;-67
2022/05/17 06:55:06;;;;;;;5.30;3.62;;;;;;;21.21;62.68;100380.19;5589015;31;34681;-67
2022/05/17 06:58:10;;;;;;;11.02;4.10;;;;;;;21.15;62.95;100383.84;5588873;31;34421;-66
2022/05/17 07:01:14;;;;;;;8.55;4.10;;;;;;;21.13;63.36;100377.00;5575438;31;33583;-67
2022/05/17 07:04:17;;;;;;;10.82;3.58;;;;;;;20.78;64.82;100379.72;5588560;31;33126;-67
2022/05/17 07:07:19;;;;;;;5.85;3.92;;;;;;;21.18;64.34;100382.53;5588370;31;34564;-68
2022/05/17 07:13:44;;;;;;;10.07;4.10;;;;;;;21.11;65.16;100387.19;5588142;31;33596;-66
2022/05/17 07:16:47;;;;;;;9.75;3.95;;;;;;;21.34;64.51;100391.78;5589160;31;34047;-68
2022/05/17 07:19:50;;;;;;;7.32;4.15;;;;;;;21.12;65.61;100386.16;5588183;31;32666;-67
2022/05/17 07:22:52;;;;;;;5.97;4.00;;;;;;;20.72;67.37;100391.47;5588114;31;32773;-67
2022/05/17 07:25:55;;;;;;;6.10;3.75;;;;;;;20.69;67.61;100387.34;5587832;31;32615;-67
2022/05/17 07:28:58;;;;;;;6.47;4.32;;;;;;;20.83;67.92;100393.31;5588006;31;33221;-67
2022/05/17 07:32:01;;;;;;;8.05;3.70;;;;;;;21.39;66.36;100392.72;5588865;31;34168;-66
2022/05/17 07:35:06;;;;;;;7.62;3.70;;;;;;;21.23;66.57;100393.44;5588763;31;34667;-67
2022/05/17 07:38:10;;;;;;;4.22;3.25;;;;;;;21.55;65.39;100396.53;5588640;31;34648;-67
2022/05/17 07:41:16;;;;;;;6.45;3.28;;;;;;;21.71;65.72;100401.19;5588762;31;33309;-67
2022/05/17 07:44:19;;;;;;;11.20;3.40;;;;;;;21.48;66.69;100399.37;5587442;31;33227;-65
2022/05/17 07:47:23;;;;;;;6.30;3.33;;;;;;;21.24;67.46;100395.91;5587217;31;33303;-67
2022/05/17 07:50:26;;;;;;;5.37;3.17;;;;;;;21.15;68.12;100400.03;5588734;31;34520;-66
2022/05/17 07:53:30;;;;;;;4.25;3.33;;;;;;;20.64;70.09;100398.00;5588089;31;34281;-65
2022/05/17 07:56:34;;;;;;;6.12;3.30;;;;;;;20.69;70.65;100392.72;5588427;31;34593;-66
2022/05/17 07:59:36;;;;;;;8.85;3.85;;;;;;;20.70;70.38;100398.94;5588646;31;34647;-66
2022/05/17 08:02:40;;;;;;;6.80;3.87;;;;;;;20.31;72.17;100403.94;5588545;31;34639;-65
2022/05/17 08:05:45;;;;;;;3.78;3.05;;;;;;;20.05;73.38;100395.38;5587435;31;33190;-65
2022/05/17 08:08:47;;;;;;;8.90;4.10;;;;;;;19.93;75.15;100408.81;5587079;31;33534;-66
2022/05/17 08:11:51;;;;;;;16.95;4.80;;;;;;;19.57;83.93;100408.84;5588204;31;34007;-70
2022/05/17 08:14:55;;;;;;;9.52;4.65;;;;;;;18.77;93.18;100414.22;5574700;31;32574;-68
2022/05/17 08:17:58;;;;;;;9.15;4.87;;;;;;;18.11;100.00;100408.47;5588572;31;33916;-66
2022/05/17 08:21:01;;;;;;;7.22;4.75;;;;;;;17.78;100.00;100404.13;5590327;31;34653;-68
2022/05/17 08:24:06;;;;;;;8.43;5.53;;;;;;;17.57;100.00;100407.06;5590119;31;33284;-68
2022/05/17 08:30:42;;;;;;;10.05;5.75;;;;;;;17.67;100.00;100412.81;5579834;31;33400;-68
2022/05/17 08:33:44;;;;;;;8.27;5.35;;;;;;;18.06;100.00;100413.66;5590386;31;34313;-68
2022/05/17 08:36:48;;;;;;;9.50;5.53;;;;;;;18.24;100.00;100422.66;5590722;31;34640;-68
2022/05/17 08:39:50;;;;;;;11.18;5.40;;;;;;;18.35;100.00;100426.47;5589716;31;32721;-68
2022/05/17 08:43:13;;;;;;;8.25;5.55;;;;;;;18.35;100.00;100428.38;5589717;31;32274;-68
2022/05/17 08:46:26;;;;;;;7.72;5.43;;;;;;;18.42;100.00;100431.81;5590288;31;34701;-68
2022/05/17 08:49:36;;;;;;;9.25;5.28;;;;;;;18.56;100.00;100436.09;5589816;31;32724;-68
2022/05/17 08:52:41;;;;;;;11.30;5.57;;;;;;;18.66;97.81;100428.38;5589738;31;32675;-68
2022/05/17 08:55:46;;;;;;;6.75;4.80;;;;;;;18.67;98.84;100428.16;5589774;31;32576;-69
2022/05/17 08:58:53;;;;;;;8.55;5.18;;;;;;;18.71;95.05;100427.72;5590405;31;33980;-69
2022/05/17 09:02:01;;;;;;;10.90;4.57;;;;;;;18.35;100.00;100434.53;5590073;31;34581;-67
2022/05/17 09:05:33;;;;;;;6.00;5.00;;;;;;;18.19;100.00;100430.53;5589756;31;34051;-67
2022/05/17 09:09:05;;;;;;;7.85;5.32;;;;;;;18.08;100.00;100436.59;5589299;31;32480;-68
2022/05/17 09:12:21;;;;;;;8.05;5.43;;;;;;;18.34;100.00;100443.66;5589145;31;33935;-68
2022/05/17 09:15:25;;;;;;;9.15;5.85;;;;;;;18.64;100.00;100439.31;5589481;31;33610;-67
2022/05/17 09:18:30;;;;;;;8.85;5.82;;;;;;;18.91;96.93;100449.88;5590067;31;33977;-67
2022/05/17 09:21:36;;;;;;;7.47;4.75;;;;;;;19.26;98.24;100450.16;5590268;31;33969;-68
2022/05/17 09:24:45;;;;;;;8.18;4.97;;;;;;;19.31;95.17;100450.31;5588801;31;34176;-68
2022/05/17 09:27:52;;;;;;;8.10;4.97;;;;;;;19.12;92.51;100441.41;5588405;31;32425;-68
2022/05/17 09:31:10;;;;;;;7.47;4.85;;;;;;;19.00;94.64;100453.91;5589368;31;34399;-68
2022/05/17 09:34:26;;;;;;;16.10;5.20;;;;;;;18.95;93.42;100443.81;5590779;31;34547;-69
2022/05/17 09:37:36;;;;;;;7.03;4.87;;;;;;;19.23;95.91;100443.34;5589484;31;32455;-69
2022/05/17 09:40:40;;;;;;;9.95;5.72;;;;;;;19.30;95.60;100452.19;5576257;31;32140;-68
2022/05/17 09:43:54;;;;;;;10.15;4.47;;;;;;;19.70;91.93;100449.91;5589007;31;32773;-67
2022/05/17 09:47:05;;;;;;;8.95;4.93;;;;;;;19.74;90.28;100452.97;5589618;31;34652;-67
2022/05/17 09:53:51;;;;;;;12.88;5.95;;;;;;;19.12;95.93;100444.09;5588876;31;32733;-71
2022/05/17 09:56:55;;;;;;;7.80;4.93;;;;;;;18.49;100.00;100449.53;5575715;31;34211;-66
2022/05/17 10:00:08;;;;;;;8.02;5.00;;;;;;;17.90;100.00;100447.22;5589252;31;33573;-67
2022/05/17 10:03:16;;;;;;;8.43;5.12;;;;;;;17.61;100.00;100445.88;5589618;31;34448;-67
2022/05/17 10:06:32;;;;;;;7.90;5.32;;;;;;;17.41;100.00;100447.78;5588930;31;34579;-68
2022/05/17 10:09:36;;;;;;;7.78;5.12;;;;;;;17.43;100.00;100444.91;5589152;31;32830;-68
2022/05/17 10:12:39;;;;;;;8.70;5.03;;;;;;;17.57;100.00;100439.25;5590317;31;34649;-67
2022/05/17 10:15:45;;;;;;;10.05;5.05;;;;;;;17.74;100.00;100445.84;5588822;31;32612;-67
2022/05/17 10:18:54;;;;;;;8.35;5.78;;;;;;;18.03;100.00;100440.94;5588950;31;32460;-67
2022/05/17 10:22:16;;;;;;;8.50;5.53;;;;;;;18.40;100.00;100447.31;5588265;31;32640;-67
2022/05/17 10:25:51;;;;;;;10.07;5.70;;;;;;;18.80;100.00;100440.66;5589388;31;34563;-68
2022/05/17 10:29:02;;;;;;;7.22;4.70;;;;;;;19.12;100.00;100438.72;5565518;31;141109;-68
2022/05/17 10:32:28;;;;;;;8.98;4.82;;;;;;;19.22;99.76;100432.81;5589857;31;33996;-68
2022/05/17 10:35:53;;;;;;;9.77;5.22;;;;;;;19.34;96.61;100436.41;5588917;31;33985;-68
2022/05/17 10:39:05;;;;;;;10.38;5.57;;;;;;;19.59;93.48;100431.81;5589355;31;34618;-68
2022/05/17 10:42:11;;;;;;;6.55;4.43;;;;;;;20.06;90.68;100421.25;5574881;31;33126;-68
2022/05/17 10:45:20;;;;;;;6.75;4.78;;;;;;;20.28;90.81;100422.41;5562708;31;32756;-68
2022/05/17 10:48:49;;;;;;;7.40;4.40;;;;;;;21.14;91.44;100417.28;5575278;31;33439;-69
2022/05/17 10:52:00;;;;;;;8.05;4.60;;;;;;;21.01;87.65;100422.06;5588010;31;33739;-68
2022/05/17 10:55:28;;;;;;;5.55;3.83;;;;;;;21.82;79.71;100421.13;5588514;31;32378;-68
2022/05/17 10:58:57;;;;;;;5.60;3.50;;;;;;;20.52;79.55;100426.81;5588622;31;34166;-68
2022/05/17 11:02:03;;;;;;;8.05;3.87;;;;;;;20.62;79.29;100423.56;5588809;31;34148;-68
2022/05/17 11:05:07;;;;;;;6.53;4.10;;;;;;;21.07;73.94;100421.09;5588134;31;32787;-67
2022/05/17 11:08:19;;;;;;;7.82;3.83;;;;;;;21.41;75.52;100419.47;5589073;31;34692;-67
2022/05/17 11:11:25;;;;;;;7.30;3.95;;;;;;;21.10;79.15;100415.25;5589075;31;34819;-67
2022/05/17 11:14:36;;;;;;;5.55;3.97;;;;;;;21.14;76.16;100419.97;5587800;31;32757;-67
2022/05/17 11:17:55;;;;;;;8.38;3.97;;;;;;;20.98;77.55;100423.34;5588320;31;35188;-67
2022/05/17 11:21:05;;;;;;;5.15;3.70;;;;;;;21.10;75.49;100410.69;5588994;31;33985;-67
2022/05/17 11:24:24;;;;;;;5.05;4.07;;;;;;;21.88;74.23;100420.97;5589030;31;34019;-67
2022/05/17 11:27:38;;;;;;;6.45;4.22;;;;;;;21.66;75.21;100425.38;5587703;31;33961;-67
2022/05/17 11:31:05;;;;;;;7.05;4.30;;;;;;;21.18;76.08;100412.22;5587775;31;33986;-68
2022/05/17 11:34:31;;;;;;;4.72;4.15;;;;;;;20.94;77.44;100408.69;5587792;31;33439;-68
2022/05/17 11:37:34;;;;;;;5.80;3.65;;;;;;;21.41;78.69;100403.25;5588672;31;33922;-68
2022/05/17 11:40:51;;;;;;;6.32;3.92;;;;;;;21.36;71.53;100403.16;5588667;31;34019;-67
2022/05/17 11:43:54;;;;;;;8.80;4.00;;;;;;;20.70;74.23;100396.25;5588950;31;34007;-66
2022/05/17 11:46:58;;;;;;;5.93;3.67;;;;;;;20.80;77.39;100393.81;5587952;31;32418;-67
2022/05/17 11:50:19;;;;;;;4.60;3.30;;;;;;;21.42;73.34;100386.84;5587514;31;33776;-68
2022/05/17 11:53:22;;;;;;;6.32;3.50;;;;;;;21.66;69.85;100385.72;5589441;31;32679;-68
2022/05/17 11:56:25;;;;;;;6.72;3.40;;;;;;;21.79;68.90;100391.88;5590898;31;34388;-68
2022/05/17 11:59:27;;;;;;;9.48;3.30;;;;;;;21.64;68.82;100381.59;5591122;31;33959;-67
2022/05/17 12:02:39;;;;;;;9.30;4.00;;;;;;;21.72;67.15;100373.13;5589605;31;32460;-68
2022/05/17 12:05:47;;;;;;;5.95;3.30;;;;;;;21.60;70.67;100372.34;5589890;31;32578;-68
2022/05/17 12:08:53;;;;;;;5.15;3.33;;;;;;;21.82;70.59;100370.62;5590610;31;34278;-68
2022/05/17 12:12:38;;;;;;;9.85;3.37;;;;;;;21.16;70.73;100368.47;5589877;31;32419;-68
2022/05/17 12:15:52;;;;;;;6.25;3.62;;;;;;;20.76;72.38;100368.38;5583325;31;34547;-68
2022/05/17 12:19:04;;;;;;;5.85;3.50;;;;;;;21.11;71.42;100361.03;5591099;31;34188;-67
2022/05/17 12:22:32;;;;;;;7.53;3.12;;;;;;;21.43;68.56;100364.19;5590905;31;33928;-68
2022/05/17 12:25:58;;;;;;;6.78;2.85;;;;;;;22.20;68.53;100366.47;5590625;31;33851;-68
2022/05/17 12:32:38;;;;;;;6.72;3.10;;;;;;;22.17;65.31;100356.16;5590557;31;34061;-68
2022/05/17 12:35:41;;;;;;;4.72;2.60;;;;;;;22.96;64.50;100352.28;5589771;31;34210;-67
2022/05/17 12:46:20;;;;;;;6.80;3.10;;;;;;;21.14;68.67;100347.12;5589775;31;34018;-68
2022/05/17 12:49:26;;;;;;;5.03;3.00;;;;;;;20.97;69.04;100350.75;5589605;31;32864;-68
2022/05/17 12:52:34;;;;;;;5.93;3.60;;;;;;;21.43;65.42;100348.00;5589937;31;32567;-68
2022/05/17 12:55:37;;;;;;;5.15;2.33;;;;;;;21.74;65.98;100349.41;5590984;31;34018;-67
2022/05/17 12:58:53;;;;;;;5.18;2.62;;;;;;;21.25;65.77;100338.16;5589821;31;33217;-67
2022/05/17 13:01:58;;;;;;;7.35;3.50;;;;;;;21.01;67.66;100335.75;5589402;31;33917;-67
2022/05/17 13:05:02;;;;;;;9.20;3.60;;;;;;;21.22;68.27;100335.97;5589853;31;33942;-67
2022/05/17 13:08:09;;;;;;;6.72;2.90;;;;;;;20.79;70.25;100332.84;5589654;31;33526;-67
2022/05/17 13:11:25;;;;;;;9.75;3.58;;;;;;;20.99;71.63;100329.75;5590254;31;34220;-68
2022/05/17 13:14:31;;;;;;;5.55;3.00;;;;;;;20.78;70.36;100331.19;5589612;31;33333;-68
2022/05/17 13:17:39;;;;;;;8.18;2.90;;;;;;;20.43;72.59;100331.19;5590282;31;33984;-67
2022/05/17 13:20:48;;;;;;;7.37;3.30;;;;;;;20.09;75.10;100335.44;5576571;31;32734;-69
2022/05/17 13:23:56;;;;;;;7.93;3.80;;;;;;;19.71;82.48;100343.03;5589539;31;32431;-71
2022/05/17 13:27:01;;;;;;;8.07;4.20;;;;;;;18.88;92.59;100353.53;5588934;31;32889;-69
2022/05/17 13:30:36;;;;;;;11.52;4.72;;;;;;;18.16;100.00;100360.31;5588857;31;32584;-69
2022/05/17 13:33:41;;;;;;;9.88;5.62;;;;;;;17.43;100.00;100345.66;5589644;31;35237;-68
2022/05/17 13:36:43;;;;;;;8.15;4.72;;;;;;;17.06;100.00;100347.22;5589009;31;33223;-67
2022/05/17 13:39:49;;;;;;;8.38;5.20;;;;;;;16.97;100.00;100345.81;5588826;31;32464;-68
2022/05/17 13:42:57;;;;;;;11.93;5.70;;;;;;;17.01;100.00;100347.84;5589206;31;32599;-67
2022/05/17 13:46:18;;;;;;;12.93;6.57;;;;;;;17.28;100.00;100335.19;5589375;31;32923;-67
2022/05/17 13:49:31;;;;;;;11.35;5.28;;;;;;;17.63;100.00;100335.66;5588869;31;32453;-66
2022/05/17 13:52:46;;;;;;;15.35;5.93;;;;;;;17.80;100.00;100334.12;5590071;31;34617;-65
2022/05/17 13:55:49;;;;;;;10.43;6.30;;;;;;;18.02;100.00;100326.53;5589622;31;34379;-66
2022/05/17 13:58:53;;;;;;;7.85;6.03;;;;;;;18.17;100.00;100330.56;5588626;31;34102;-66
2022/05/17 14:01:59;;;;;;;9.43;6.93;;;;;;;18.10;100.00;100321.75;5589620;31;34321;-66
2022/05/17 14:05:07;;;;;;;8.52;7.03;;;;;;;18.31;100.00;100312.47;5589032;31;33488;-68
2022/05/17 14:11:50;;;;;;;12.68;7.20;;;;;;;19.29;100.00;100307.97;5589441;31;34184;-66
2022/05/17 14:14:54;;;;;;;11.07;6.80;;;;;;;20.41;100.00;100309.06;5588728;31;34883;-67
2022/05/17 14:17:57;;;;;;;10.20;6.10;;;;;;;21.09;94.40;100301.13;5589301;31;34696;-67
2022/05/17 14:21:00;;;;;;;7.03;5.40;;;;;;;21.62;91.97;100302.75;5588686;31;33154;-68
2022/05/17 14:24:03;;;;;;;11.32;5.90;;;;;;;21.30;88.43;100304.28;5588719;31;33154;-68
2022/05/17 14:27:06;;;;;;;9.68;5.95;;;;;;;21.20;91.63;100303.00;5589293;31;34623;-68
2022/05/17 14:30:09;;;;;;;8.05;5.07;;;;;;;20.90;93.56;100301.53;5588159;31;34110;-68
2022/05/17 14:33:13;;;;;;;8.68;5.80;;;;;;;20.41;92.85;100297.44;5589125;31;34808;-68
2022/05/17 14:36:25;;;;;;;7.18;5.45;;;;;;;19.76;99.39;100300.94;5587718;31;32771;-67
2022/05/17 14:39:29;;;;;;;7.45;5.03;;;;;;;19.78;97.33;100293.47;5588852;31;34365;-68
2022/05/17 14:42:33;;;;;;;7.10;5.57;;;;;;;19.60;96.85;100292.69;5589232;31;33920;-67
2022/05/17 14:45:56;;;;;;;7.25;5.32;;;;;;;19.33;100.00;100289.50;5588714;31;34159;-67
2022/05/17 14:49:12;;;;;;;7.45;5.07;;;;;;;19.20;98.83;100292.38;5588751;31;33979;-68
2022/05/17 14:52:15;;;;;;;8.48;5.25;;;;;;;19.16;99.97;100293.88;5588692;31;34328;-67